x

Neah Bay, - 6nm North Of Cape Flattery, Wa (traffic Separation Lighted Buoy) (46087) Wave Buoy

8:20am - Mon 16th Jan 2017 All times are PST. -8 hours from GMT.

  • Sig Wave height 6.2ft
  • Swell Direction
  • Peak Period 12s
  • Average Period 7s
  • Wind
    20mph, 25mph gusts
  • Sea Temp 46°f
  • 空気 Temp 43°f
  • Sea Pressure 1019.6mb
  • Neah Bay, - 6nm North Of Cape Flattery, Wa     (traffic Separation Lighted Buoy)
  • Neah Bay, - 6nm North Of Cape Flattery, Wa     (traffic Separation Lighted Buoy)

More Historic Weather Station data

Upgrade to MSW Pro to gain access to the past 30 days of data for over 8000 Wavebouys and Weather Stations around the globe.

Join Pro

Comparision Forecast

View Surf forecast
   
Mon 01/16 8:20am 6ft 12s 7s 20 25 mph 1019.6mb 46f 43f
7:50am 6ft 15s 8s 22 27 mph 1019.3mb 46f 43f
7:20am 7ft 13s 8s 20 25 mph 1020.3mb 46f 43f
6:50am 6ft 14s 9s 20 22 mph 1020.6mb 46f 43f
6:20am 6.5ft 14s 9s 20 25 mph 1020.5mb 46f 43f
5:50am 6ft 15s 8s 18 22 mph 1021.2mb 46f 43f
5:20am 6ft 15s 8s 16 22 mph 1021.6mb 46f 42f
4:50am 6.5ft 14s 9s 20 25 mph 1021.6mb 46f 44f
4:20am 7ft 14s 9s 20 25 mph 1022mb 46f 43f
3:50am 6ft 15s 8s 20 22 mph 1022.5mb 46f 43f
3:20am 7ft 15s 9s 18 22 mph 1022.7mb 46f 43f
2:50am 7ft 14s 9s 18 22 mph 1022.9mb 46f 43f
2:20am 7ft 15s 8s 18 22 mph 1023.6mb 46f 43f
1:50am 7ft 13s 8s 20 25 mph 1023.4mb 46f 43f
1:20am 7ft 12s 8s 20 25 mph 1022.9mb 46f 43f
12:50am 6.5ft 15s 8s 20 25 mph 1023.1mb 46f 43f
12:20am 8ft 12s 10s 20 25 mph 1023.2mb 46f 43f
Sun 01/15 11:50pm 8ft 13s 9s 20 25 mph 1024.5mb 46f 43f
11:20pm 9ft 16s 10s 20 25 mph 1024.3mb 46f 43f
10:50pm 8ft 15s 9s 20 22 mph 1024.3mb 46f 43f
10:20pm 8.5ft 13s 9s 22 29 mph 1024.2mb 46f 43f
9:50pm 7ft 13s 9s 20 25 mph 1024.9mb 46f 43f
9:20pm 7.5ft 11s 10s 20 25 mph 1024.8mb 46f 43f
8:50pm 8ft 14s 10s 18 25 mph 1025.4mb 46f 43f
8:20pm 8ft 12s 10s 20 25 mph 1025.2mb 46f 43f
7:50pm 8ft 13s 10s 18 22 mph 1024.7mb 46f 43f
7:20pm 8ft 16s 10s 20 25 mph 1024.4mb 46f 43f
6:50pm 7ft 12s 9s 18 22 mph 1024.5mb 46f 43f
6:20pm 7.5ft 17s 9s 16 20 mph 1024.8mb 46f 43f
5:50pm 6.5ft 13s 9s 18 20 mph 1024.2mb 46f 43f
5:20pm 7.5ft 17s 9s 16 20 mph 1024.3mb 46f 43f
4:50pm 7.5ft 13s 9s 16 20 mph 1024.1mb 46f 43f
4:20pm 7.5ft 12s 9s 16 20 mph 1024mb 46f 43f
3:50pm 8ft 12s 10s 16 18 mph 1024.5mb 46f 43f
3:20pm 7ft 17s 9s 13 16 mph 1024.8mb 46f 42f
2:50pm 7.5ft 17s 10s 13 16 mph 1024.8mb 46f 42f
2:20pm 7.5ft 11s 10s 11 13 mph 1024.8mb 46f 42f
1:50pm 7.5ft 12s 10s 11 16 mph 1024.6mb 46f 42f
1:20pm 7.5ft 10s 10s 11 16 mph 1024.8mb 46f 42f
12:50pm 7ft 13s 10s 9 11 mph 1025.6mb 46f 41f
12:20pm 7ft 12s 10s 11 16 mph 1025.6mb 46f 41f
11:50am 6ft 12s 9s 11 13 mph 1025.8mb 45f 41f
11:20am 6.5ft 11s 9s 13 16 mph 1025.6mb 45f 41f
10:50am 6.5ft 12s 9s 13 16 mph 1025.7mb 45f 40f
10:20am 6ft 10s 9s 11 16 mph 1025.9mb 45f 41f
9:50am 6ft 11s 9s 11 13 mph 1025.9mb 45f 40f
9:20am 5.5ft 11s 8s 11 16 mph 1025.7mb 45f 40f
8:50am 6ft 10s 8s 13 16 mph 1025.6mb 45f 41f
8:20am 5.5ft 10s 8s 16 18 mph 1025.1mb 45f 41f
7:50am 5ft 10s 8s 16 20 mph 1025mb 45f 41f
7:20am 5.5ft 11s 8s 16 20 mph 1025.1mb 45f 40f
6:50am 5ft 11s 8s 16 18 mph 1025mb 45f 40f
6:20am 5.5ft 10s 8s 16 18 mph 1024.8mb 45f 40f
5:50am 5ft 11s 8s 16 20 mph 1025mb 45f 40f
5:20am 5ft 10s 7s 16 22 mph 1025.1mb 45f 40f
4:50am 5ft 11s 8s 16 20 mph 1025.1mb 45f 40f
4:20am 5.5ft 10s 8s 18 22 mph 1025.1mb 45f 41f
3:50am 5ft 11s 8s 18 22 mph 1025.2mb 46f 41f
3:20am 6ft 10s 8s 18 20 mph 1025.2mb 46f 42f
2:50am 5.5ft 10s 8s 16 18 mph 1025.6mb 46f 41f
2:20am 6ft 10s 8s 13 18 mph 1025.5mb 46f 41f
1:50am 6ft 11s 8s 13 16 mph 1025.5mb 46f 41f
1:20am 5.5ft 11s 7s 18 22 mph 1024.5mb 46f 41f
12:50am 6ft 10s 7s 18 22 mph 1024.4mb 46f 41f
12:20am 6ft 10s 7s 13 18 mph 1025.2mb 46f 41f
Sat 01/14 11:50pm 6ft 11s 7s 16 20 mph 1025.1mb 46f 41f
11:20pm 7ft 10s 8s 20 22 mph 1025mb 46f 41f
10:50pm 7ft 10s 8s 20 25 mph 1024.8mb 45f 41f
10:20pm 6.5ft 11s 8s 20 25 mph 1024.7mb 46f 41f
9:50pm 7ft 11s 8s 20 25 mph 1024.8mb 46f 41f
9:20pm 7.5ft 11s 8s 20 25 mph 1024.9mb 46f 41f
8:50pm 7ft 11s 8s 20 22 mph 1024.9mb 46f 41f
8:20pm 6ft 11s 8s 18 22 mph 1025.2mb 46f 41f
7:50pm 7ft 11s 8s 18 22 mph 1025mb 46f 41f
7:20pm 6.5ft 11s 8s 20 22 mph 1024.6mb 46f 41f
6:50pm 7ft 10s 8s 20 25 mph 1024.7mb 46f 41f
6:20pm 6.5ft 11s 7s 18 22 mph 1024.8mb 46f 42f
5:50pm 6.5ft 11s 7s 18 25 mph 1025.1mb 46f 42f
5:20pm 6.5ft 11s 7s 20 22 mph 1025mb 46f 42f
4:50pm 7ft 11s 7s 20 25 mph 1024.9mb 46f 41f
4:20pm 6.5ft 10s 7s 22 29 mph 1024.7mb 46f 41f
3:50pm 5.5ft 11s 6s 25 29 mph 1024.8mb 46f 41f
3:20pm 6ft 11s 7s 22 27 mph 1024.9mb 46f 41f
2:50pm 5.5ft 12s 6s 25 29 mph 1024.9mb 46f 41f
2:20pm 6ft 12s 6s 22 27 mph 1025.1mb 46f 41f
1:50pm 5ft 12s 6s 22 25 mph 1025.6mb 46f 40f
1:20pm 5ft 12s 6s 25 29 mph 1025.6mb 46f 40f
12:50pm 4.5ft 13s 5s 25 29 mph 1025.9mb 46f 40f
12:20pm 5ft 12s 6s 22 27 mph 1026.6mb 46f 40f
11:50am 4.5ft 13s 5s 22 27 mph 1027.2mb 46f 40f
11:20am 4.5ft 14s 5s 22 27 mph 1027.6mb 46f 40f
10:50am 5ft 5s 5s 22 27 mph 1028mb 46f 40f
10:20am 5ft 4s 5s 22 29 mph 1028.1mb 46f 40f
9:50am 4.5ft 5s 5s 25 29 mph 1028.1mb 46f 40f
9:20am 4.5ft 5s 5s 22 27 mph 1028.3mb 46f 40f
8:50am 4.5ft 5s 5s 20 25 mph 1028.6mb 46f 38f
8:20am 3.5ft 5s 5s 22 27 mph 1028mb 46f 39f
7:50am 3.5ft 14s 5s 22 29 mph 1027.9mb 46f 39f
7:20am 3.5ft 5s 5s 22 27 mph 1028.1mb 46f 38f
6:50am 3.5ft 14s 5s 22 27 mph 1028.1mb 46f 38f
6:20am 3ft 9s 5s 25 27 mph 1027.9mb 46f 38f
5:50am 3ft 14s 5s 20 25 mph 1028.5mb 46f 39f
5:20am 3ft 10s 5s 20 25 mph 1029.1mb 46f 38f
4:50am 3ft 14s 6s 18 22 mph 1029.4mb 46f 39f
4:20am 3ft 9s 5s 18 22 mph 1029.8mb 46f 39f
3:50am 3.5ft 10s 5s 18 22 mph 1029.9mb 46f 39f
3:20am 3.5ft 10s 5s 18 22 mph 1030.2mb 46f 40f
2:50am 3.5ft 9s 5s 22 27 mph 1029.6mb 46f 40f
2:20am 3.5ft 10s 5s 25 29 mph 1029mb 46f 40f
1:50am 3.5ft 9s 5s 22 27 mph 1028.6mb 45f 39f
1:20am 3.5ft 9s 5s 22 27 mph 1029mb 45f 38f
12:50am 3.5ft 10s 5s 22 29 mph 1029.3mb 46f 40f
12:20am 3.5ft 10s 5s 22 27 mph 1029.5mb 46f 40f
Fri 01/13 11:50pm 3.5ft 10s 5s 22 27 mph 1029.7mb 46f 40f
11:20pm 3.5ft 14s 5s 22 25 mph 1029.7mb 46f 40f
10:50pm 3.5ft 10s 5s 22 27 mph 1029.8mb 46f 40f
10:20pm 3.5ft 9s 5s 22 27 mph 1030.1mb 46f 40f
9:50pm 3.5ft 10s 6s 20 25 mph 1030.3mb 46f 40f
9:20pm 3.5ft 10s 5s 20 25 mph 1030.3mb 46f 39f
8:50pm 3.5ft 11s 5s 18 22 mph 1030.5mb 46f 39f
8:20pm 3.5ft 10s 5s 18 22 mph 1030.6mb 46f 39f
7:50pm 3.5ft 10s 5s 20 22 mph 1030.7mb 46f 39f
7:20pm 3.5ft 10s 5s 18 22 mph 1030.6mb 46f 39f
6:50pm 3.5ft 11s 5s 20 22 mph 1030.4mb 46f 40f
6:20pm 3ft 10s 5s 20 25 mph 1030mb 47f 39f
5:50pm 3.5ft 11s 5s 18 22 mph 1030.4mb 46f 39f
5:20pm 3.5ft 11s 5s 16 20 mph 1030.6mb 46f 39f
4:50pm 4ft 11s 5s 13 18 mph 1030.7mb 46f 39f
4:20pm 3.5ft 11s 5s 16 18 mph 1030.4mb 46f 39f
3:50pm 3.5ft 10s 5s 18 22 mph 1029.7mb 46f 39f
3:20pm 4ft 10s 6s 18 22 mph 1029.7mb 46f 39f
2:50pm 3.5ft 10s 5s 18 22 mph 1029.9mb 46f 39f
2:20pm 3.5ft 10s 5s 16 18 mph 1030.3mb 46f 38f
1:50pm 3.5ft 10s 5s 18 20 mph 1030.1mb 46f 38f
12:50pm 4ft 11s 5s 18 22 mph 1029.7mb 46f 38f
12:20pm 4ft 10s 5s 18 22 mph 1030mb 46f 38f
11:50am 4ft 11s 5s 18 22 mph 1030.3mb 46f 38f
11:20am 4ft 11s 5s 18 22 mph 1030.7mb 46f 38f
10:50am 4ft 11s 6s 18 25 mph 1030.9mb 46f 38f
10:20am 4ft 11s 6s 18 22 mph 1030.4mb 46f 37f
9:50am 4ft 11s 5s 20 25 mph 1029.9mb 46f 37f
9:20am 3.5ft 11s 6s 20 22 mph 1030mb 46f 37f
8:50am 4ft 11s 5s 20 22 mph 1029.7mb 46f 37f
8:20am 4.5ft 11s 6s 20 25 mph 1029.4mb 46f 37f
7:50am 3.5ft 11s 6s 18 20 mph 1029.4mb 46f 37f
7:20am 3.5ft 11s 5s 18 20 mph 1029.2mb 46f 37f
6:50am 3.5ft 11s 6s 18 22 mph 1029.4mb 47f 37f
6:20am 4ft 11s 7s 18 22 mph 1029mb 47f 37f
5:50am 3.5ft 11s 6s 18 20 mph 1028.8mb 47f 37f
5:20am 3.5ft 11s 6s 18 22 mph 1028.9mb 47f 37f
4:50am 4ft 12s 7s 18 20 mph 1029.1mb 46f 37f
4:20am 3.5ft 11s 7s 16 20 mph 1029.2mb 46f 37f
3:50am 4.5ft 11s 8s 18 22 mph 1029mb 46f 37f
3:20am 4.5ft 11s 8s 18 22 mph 1028.8mb 46f 37f
2:50am 4ft 11s 8s 18 22 mph 1028.6mb 46f 37f
2:20am 4.5ft 11s 8s 18 22 mph 1028.1mb 46f 37f
1:50am 4.5ft 11s 8s 16 20 mph 1027.9mb 46f 37f
1:20am 4.5ft 11s 7s 16 18 mph 1027.7mb 46f 37f
12:50am 4.5ft 11s 7s 16 20 mph 1027.7mb 47f 37f
12:20am 4.5ft 11s 7s 16 20 mph 1027.6mb 47f 37f
Thu 01/12 11:50pm 4.5ft 11s 7s 16 20 mph 1027.7mb 47f 37f
11:20pm 5ft 11s 8s 16 20 mph 1027.6mb 47f 37f
10:50pm 4.5ft 11s 8s 16 18 mph 1027.3mb 47f 37f
10:20pm 5ft 10s 8s 13 16 mph 1027.7mb 47f 37f
9:50pm 5ft 11s 9s 13 20 mph 1027.4mb 46f 37f
9:20pm 5.5ft 11s 8s 18 22 mph 1026.9mb 46f 38f
8:50pm 5ft 11s 8s 16 18 mph 1027.2mb 46f 37f
7:50pm 4.5ft 12s 9s 16 18 mph 1026.4mb 46f 38f
7:20pm 5ft 12s 10s 11 13 mph 1026.6mb 46f 38f
6:50pm 5ft 12s 10s 9 11 mph 1026.3mb 46f 39f
6:20pm 6ft 12s 10s 9 11 mph 1026.1mb 46f 39f
5:50pm 5ft 12s 10s 9 11 mph 1026.1mb 46f 39f